sensor_id;sensor_type;location;lat;lon;timestamp;pressure;altitude;pressure_sealevel;temperature;humidity
11676;BME280;5894;42.768;23.404;2023-07-22T00:02:25;95528.63;;;26.17;72.14
11676;BME280;5894;42.768;23.404;2023-07-22T00:04:52;95544.81;;;26.24;72.48
11676;BME280;5894;42.768;23.404;2023-07-22T00:07:19;95550.97;;;26.25;72.64
11676;BME280;5894;42.768;23.404;2023-07-22T00:09:46;95545.97;;;26.23;72.97
11676;BME280;5894;42.768;23.404;2023-07-22T00:12:16;95549.03;;;26.25;73.42
11676;BME280;5894;42.768;23.404;2023-07-22T00:14:43;95554.84;;;26.24;73.79
11676;BME280;5894;42.768;23.404;2023-07-22T00:17:10;95557.56;;;26.24;74.15
11676;BME280;5894;42.768;23.404;2023-07-22T00:19:37;95549.94;;;26.15;74.54
11676;BME280;5894;42.768;23.404;2023-07-22T00:22:05;95557.22;;;26.18;74.82
11676;BME280;5894;42.768;23.404;2023-07-22T00:24:32;95559.91;;;26.18;74.79
11676;BME280;5894;42.768;23.404;2023-07-22T00:26:59;95546.44;;;26.15;75.78
11676;BME280;5894;42.768;23.404;2023-07-22T00:29:27;95556.63;;;26.00;77.29
11676;BME280;5894;42.768;23.404;2023-07-22T00:31:54;95553.91;;;26.04;77.39
11676;BME280;5894;42.768;23.404;2023-07-22T00:34:21;95532.78;;;25.91;77.33
11676;BME280;5894;42.768;23.404;2023-07-22T00:36:49;95545.41;;;26.05;77.48
11676;BME280;5894;42.768;23.404;2023-07-22T00:39:16;95537.69;;;26.04;78.16
11676;BME280;5894;42.768;23.404;2023-07-22T00:41:43;95537.78;;;25.93;79.54
11676;BME280;5894;42.768;23.404;2023-07-22T00:44:11;95539.38;;;25.87;80.33
11676;BME280;5894;42.768;23.404;2023-07-22T00:46:39;95544.09;;;25.76;81.50
11676;BME280;5894;42.768;23.404;2023-07-22T00:49:07;95552.56;;;25.81;81.26
11676;BME280;5894;42.768;23.404;2023-07-22T00:51:34;95513.38;;;25.55;81.24
11676;BME280;5894;42.768;23.404;2023-07-22T00:54:01;95565.63;;;25.86;81.55
11676;BME280;5894;42.768;23.404;2023-07-22T00:56:31;95571.00;;;25.90;81.16
11676;BME280;5894;42.768;23.404;2023-07-22T00:58:59;95561.72;;;25.91;81.87
11676;BME280;5894;42.768;23.404;2023-07-22T01:01:27;95557.13;;;25.88;81.83
11676;BME280;5894;42.768;23.404;2023-07-22T01:03:55;95553.25;;;25.89;81.64
11676;BME280;5894;42.768;23.404;2023-07-22T01:06:23;95549.06;;;25.84;82.43
11676;BME280;5894;42.768;23.404;2023-07-22T01:08:51;95534.50;;;25.75;83.33
11676;BME280;5894;42.768;23.404;2023-07-22T01:11:18;95541.84;;;25.71;84.24
11676;BME280;5894;42.768;23.404;2023-07-22T01:13:45;95534.97;;;25.59;85.54
11676;BME280;5894;42.768;23.404;2023-07-22T01:16:12;95548.44;;;25.66;85.08
11676;BME280;5894;42.768;23.404;2023-07-22T01:18:39;95544.25;;;25.62;84.90
11676;BME280;5894;42.768;23.404;2023-07-22T01:21:08;95540.38;;;25.63;85.27
11676;BME280;5894;42.768;23.404;2023-07-22T01:23:38;95541.88;;;25.67;85.19
11676;BME280;5894;42.768;23.404;2023-07-22T01:26:07;95533.00;;;25.67;85.50
11676;BME280;5894;42.768;23.404;2023-07-22T01:28:35;95518.38;;;25.57;85.78
11676;BME280;5894;42.768;23.404;2023-07-22T01:31:02;95532.63;;;25.65;86.14
11676;BME280;5894;42.768;23.404;2023-07-22T01:33:31;95527.22;;;25.65;86.41
11676;BME280;5894;42.768;23.404;2023-07-22T01:35:58;95521.09;;;25.61;86.43
11676;BME280;5894;42.768;23.404;2023-07-22T01:38:25;95527.22;;;25.65;86.52
11676;BME280;5894;42.768;23.404;2023-07-22T01:40:54;95532.22;;;25.66;86.65
11676;BME280;5894;42.768;23.404;2023-07-22T01:43:21;95518.72;;;25.66;86.68
11676;BME280;5894;42.768;23.404;2023-07-22T01:45:48;95529.97;;;25.57;87.60
11676;BME280;5894;42.768;23.404;2023-07-22T01:48:15;95533.81;;;25.56;87.90
11676;BME280;5894;42.768;23.404;2023-07-22T01:50:42;95528.47;;;25.53;87.48
11676;BME280;5894;42.768;23.404;2023-07-22T01:53:09;95527.31;;;25.54;87.89
11676;BME280;5894;42.768;23.404;2023-07-22T01:55:36;95530.41;;;25.49;89.19
11676;BME280;5894;42.768;23.404;2023-07-22T01:58:04;95531.97;;;25.46;89.90
11676;BME280;5894;42.768;23.404;2023-07-22T02:00:32;95524.63;;;25.47;90.27
11676;BME280;5894;42.768;23.404;2023-07-22T02:02:59;95521.19;;;25.46;90.21
11676;BME280;5894;42.768;23.404;2023-07-22T02:05:26;95527.38;;;25.43;90.71
11676;BME280;5894;42.768;23.404;2023-07-22T02:07:55;95520.44;;;25.42;91.14
11676;BME280;5894;42.768;23.404;2023-07-22T02:10:22;95522.00;;;25.40;91.55
11676;BME280;5894;42.768;23.404;2023-07-22T02:12:49;95520.47;;;25.39;91.76
11676;BME280;5894;42.768;23.404;2023-07-22T02:15:18;95533.59;;;25.37;91.73
11676;BME280;5894;42.768;23.404;2023-07-22T02:17:47;95523.94;;;25.36;91.91
11676;BME280;5894;42.768;23.404;2023-07-22T02:20:15;95527.03;;;25.34;92.21
11676;BME280;5894;42.768;23.404;2023-07-22T02:22:43;95526.28;;;25.34;92.20
11676;BME280;5894;42.768;23.404;2023-07-22T02:25:10;95525.53;;;25.33;92.36
11676;BME280;5894;42.768;23.404;2023-07-22T02:27:37;95522.84;;;25.30;92.43
11676;BME280;5894;42.768;23.404;2023-07-22T02:30:07;95521.72;;;25.27;93.05
11676;BME280;5894;42.768;23.404;2023-07-22T02:32:38;95521.72;;;25.23;93.45
11676;BME280;5894;42.768;23.404;2023-07-22T02:35:07;95520.22;;;25.22;93.21
11676;BME280;5894;42.768;23.404;2023-07-22T02:37:36;95522.53;;;25.20;93.22
11676;BME280;5894;42.768;23.404;2023-07-22T02:40:04;95477.22;;;24.91;93.52
11676;BME280;5894;42.768;23.404;2023-07-22T02:42:35;95524.88;;;25.15;93.78
11676;BME280;5894;42.768;23.404;2023-07-22T02:45:03;95458.47;;;24.69;94.34
11676;BME280;5894;42.768;23.404;2023-07-22T02:47:32;95529.16;;;25.12;94.84
11676;BME280;5894;42.768;23.404;2023-07-22T02:50:01;95531.09;;;25.08;95.20
11676;BME280;5894;42.768;23.404;2023-07-22T02:52:29;95512.69;;;24.93;95.25
11676;BME280;5894;42.768;23.404;2023-07-22T02:55:07;95538.44;;;25.04;95.56
11676;BME280;5894;42.768;23.404;2023-07-22T02:57:36;95532.66;;;25.02;96.13
11676;BME280;5894;42.768;23.404;2023-07-22T03:00:05;95531.53;;;25.00;96.43
11676;BME280;5894;42.768;23.404;2023-07-22T03:02:34;95532.69;;;24.99;96.70
11676;BME280;5894;42.768;23.404;2023-07-22T03:05:03;95533.09;;;24.90;96.72
11676;BME280;5894;42.768;23.404;2023-07-22T03:07:33;95499.66;;;24.73;96.99
11676;BME280;5894;42.768;23.404;2023-07-22T03:10:00;95525.03;;;24.83;97.79
11676;BME280;5894;42.768;23.404;2023-07-22T03:12:27;95538.09;;;24.95;98.15
11676;BME280;5894;42.768;23.404;2023-07-22T03:14:54;95544.28;;;24.92;98.47
11676;BME280;5894;42.768;23.404;2023-07-22T03:17:21;95549.28;;;24.90;98.70
11676;BME280;5894;42.768;23.404;2023-07-22T03:19:49;95548.53;;;24.82;99.19
11676;BME280;5894;42.768;23.404;2023-07-22T03:22:17;95551.63;;;24.84;99.97
11676;BME280;5894;42.768;23.404;2023-07-22T03:24:45;95548.97;;;24.81;100.00
11676;BME280;5894;42.768;23.404;2023-07-22T03:27:12;95488.28;;;24.37;100.00
11676;BME280;5894;42.768;23.404;2023-07-22T03:29:40;95565.91;;;24.78;100.00
11676;BME280;5894;42.768;23.404;2023-07-22T03:32:08;95566.69;;;24.75;100.00
11676;BME280;5894;42.768;23.404;2023-07-22T03:34:35;95569.78;;;24.73;100.00
11676;BME280;5894;42.768;23.404;2023-07-22T03:37:02;95567.47;;;24.72;100.00
11676;BME280;5894;42.768;23.404;2023-07-22T03:39:31;95573.28;;;24.70;100.00
11676;BME280;5894;42.768;23.404;2023-07-22T03:41:58;95570.19;;;24.68;100.00
11676;BME280;5894;42.768;23.404;2023-07-22T03:44:25;95572.13;;;24.68;100.00
11676;BME280;5894;42.768;23.404;2023-07-22T03:46:54;95570.59;;;24.63;100.00
11676;BME280;5894;42.768;23.404;2023-07-22T03:49:21;95567.50;;;24.61;100.00
11676;BME280;5894;42.768;23.404;2023-07-22T03:51:48;95574.81;;;24.61;100.00
11676;BME280;5894;42.768;23.404;2023-07-22T03:54:15;95560.66;;;24.46;100.00
11676;BME280;5894;42.768;23.404;2023-07-22T03:56:43;95587.97;;;24.55;100.00
11676;BME280;5894;42.768;23.404;2023-07-22T03:59:10;95577.94;;;24.52;100.00
11676;BME280;5894;42.768;23.404;2023-07-22T04:01:37;95584.13;;;24.49;100.00
11676;BME280;5894;42.768;23.404;2023-07-22T04:04:04;95584.91;;;24.46;100.00
11676;BME280;5894;42.768;23.404;2023-07-22T04:06:31;95585.69;;;24.43;100.00
11676;BME280;5894;42.768;23.404;2023-07-22T04:08:58;95589.16;;;24.40;100.00
11676;BME280;5894;42.768;23.404;2023-07-22T04:11:26;95598.41;;;24.39;100.00
11676;BME280;5894;42.768;23.404;2023-07-22T04:13:55;95599.19;;;24.36;100.00
11676;BME280;5894;42.768;23.404;2023-07-22T04:16:23;95597.63;;;24.31;100.00
11676;BME280;5894;42.768;23.404;2023-07-22T04:18:51;95591.50;;;24.27;100.00
11676;BME280;5894;42.768;23.404;2023-07-22T04:21:18;95598.06;;;24.26;100.00
11676;BME280;5894;42.768;23.404;2023-07-22T04:23:44;95596.50;;;24.25;100.00
11676;BME280;5894;42.768;23.404;2023-07-22T04:26:11;95599.22;;;24.25;100.00
11676;BME280;5894;42.768;23.404;2023-07-22T04:28:39;95591.88;;;24.22;100.00
11676;BME280;5894;42.768;23.404;2023-07-22T04:31:07;95599.59;;;24.24;100.00
11676;BME280;5894;42.768;23.404;2023-07-22T04:33:35;95603.06;;;24.24;100.00
11676;BME280;5894;42.768;23.404;2023-07-22T04:36:03;95613.44;;;24.26;100.00
11676;BME280;5894;42.768;23.404;2023-07-22T04:38:30;95609.59;;;24.27;100.00
11676;BME280;5894;42.768;23.404;2023-07-22T04:40:57;95620.00;;;24.28;100.00
11676;BME280;5894;42.768;23.404;2023-07-22T04:43:24;95620.78;;;24.29;100.00
11676;BME280;5894;42.768;23.404;2023-07-22T04:45:52;95613.81;;;24.31;100.00
11676;BME280;5894;42.768;23.404;2023-07-22T04:48:21;95614.19;;;24.33;100.00
11676;BME280;5894;42.768;23.404;2023-07-22T04:50:49;95614.19;;;24.37;100.00
11676;BME280;5894;42.768;23.404;2023-07-22T04:53:16;95608.03;;;24.36;100.00
11676;BME280;5894;42.768;23.404;2023-07-22T04:55:43;95613.03;;;24.41;100.00
11676;BME280;5894;42.768;23.404;2023-07-22T04:58:10;95611.09;;;24.45;100.00
11676;BME280;5894;42.768;23.404;2023-07-22T05:00:38;95617.25;;;24.49;100.00
11676;BME280;5894;42.768;23.404;2023-07-22T05:03:05;95625.31;;;24.53;100.00
11676;BME280;5894;42.768;23.404;2023-07-22T05:05:33;95625.69;;;24.55;100.00
11676;BME280;5894;42.768;23.404;2023-07-22T05:08:01;95629.16;;;24.59;100.00
11676;BME280;5894;42.768;23.404;2023-07-22T05:10:28;95625.66;;;24.62;100.00
11676;BME280;5894;42.768;23.404;2023-07-22T05:12:55;95634.16;;;24.68;100.00
11676;BME280;5894;42.768;23.404;2023-07-22T05:15:23;95625.63;;;24.76;100.00
11676;BME280;5894;42.768;23.404;2023-07-22T05:17:50;95623.66;;;24.87;100.00
11676;BME280;5894;42.768;23.404;2023-07-22T05:20:18;95628.63;;;25.03;100.00
11676;BME280;5894;42.768;23.404;2023-07-22T05:22:46;95633.19;;;25.17;100.00
11676;BME280;5894;42.768;23.404;2023-07-22T05:25:13;95630.38;;;25.35;100.00
11676;BME280;5894;42.768;23.404;2023-07-22T05:27:40;95635.31;;;25.50;100.00
11676;BME280;5894;42.768;23.404;2023-07-22T05:30:08;95635.22;;;25.68;100.00
11676;BME280;5894;42.768;23.404;2023-07-22T05:32:36;95636.28;;;25.81;100.00
11676;BME280;5894;42.768;23.404;2023-07-22T05:35:03;95633.06;;;25.97;99.47
11676;BME280;5894;42.768;23.404;2023-07-22T05:37:31;95636.81;;;26.14;97.90
11676;BME280;5894;42.768;23.404;2023-07-22T05:40:00;95641.34;;;26.24;97.64
11676;BME280;5894;42.768;23.404;2023-07-22T05:42:27;95644.00;;;26.35;95.90
11676;BME280;5894;42.768;23.404;2023-07-22T05:44:55;95635.78;;;26.45;95.80
11676;BME280;5894;42.768;23.404;2023-07-22T05:47:22;95639.06;;;26.60;94.69
11676;BME280;5894;42.768;23.404;2023-07-22T05:49:50;95638.97;;;26.71;93.64
11676;BME280;5894;42.768;23.404;2023-07-22T05:52:17;95638.81;;;26.85;92.68
11676;BME280;5894;42.768;23.404;2023-07-22T05:54:44;95642.19;;;26.96;92.19
11676;BME280;5894;42.768;23.404;2023-07-22T05:57:12;95639.38;;;27.03;92.01
11676;BME280;5894;42.768;23.404;2023-07-22T05:59:39;95633.97;;;27.03;91.49
11676;BME280;5894;42.768;23.404;2023-07-22T06:02:08;95650.75;;;27.21;90.59
11676;BME280;5894;42.768;23.404;2023-07-22T06:04:35;95653.31;;;27.32;90.51
11676;BME280;5894;42.768;23.404;2023-07-22T06:07:01;95667.13;;;27.41;89.92
11676;BME280;5894;42.768;23.404;2023-07-22T06:09:29;95661.56;;;27.52;87.70
11676;BME280;5894;42.768;23.404;2023-07-22T06:11:56;95661.13;;;27.60;87.13
11676;BME280;5894;42.768;23.404;2023-07-22T06:14:24;95666.78;;;27.69;85.24
11676;BME280;5894;42.768;23.404;2023-07-22T06:16:51;95665.13;;;27.75;85.16
11676;BME280;5894;42.768;23.404;2023-07-22T06:19:18;95671.97;;;27.84;84.30
11676;BME280;5894;42.768;23.404;2023-07-22T06:29:35;95679.59;;;28.19;83.13
11676;BME280;5894;42.768;23.404;2023-07-22T06:32:02;95672.59;;;28.22;84.50
11676;BME280;5894;42.768;23.404;2023-07-22T06:34:29;95677.84;;;28.32;85.68
11676;BME280;5894;42.768;23.404;2023-07-22T06:36:56;95674.56;;;28.41;85.40
11676;BME280;5894;42.768;23.404;2023-07-22T06:39:23;95678.75;;;28.45;85.60
11676;BME280;5894;42.768;23.404;2023-07-22T06:41:50;95680.41;;;28.63;85.11
11676;BME280;5894;42.768;23.404;2023-07-22T06:44:17;95676.31;;;28.74;83.13
11676;BME280;5894;42.768;23.404;2023-07-22T06:46:45;95675.69;;;28.87;82.23
11676;BME280;5894;42.768;23.404;2023-07-22T06:49:12;95675.84;;;28.99;83.27
11676;BME280;5894;42.768;23.404;2023-07-22T06:51:39;95675.63;;;29.10;78.19
11676;BME280;5894;42.768;23.404;2023-07-22T06:54:06;95673.53;;;29.17;80.07
11676;BME280;5894;42.768;23.404;2023-07-22T06:56:33;95671.81;;;29.27;81.04
11676;BME280;5894;42.768;23.404;2023-07-22T06:59:00;95663.38;;;29.41;80.33
11676;BME280;5894;42.768;23.404;2023-07-22T07:01:27;95662.66;;;29.57;80.11
11676;BME280;5894;42.768;23.404;2023-07-22T07:03:56;95660.03;;;29.70;79.53
11676;BME280;5894;42.768;23.404;2023-07-22T07:06:23;95660.22;;;29.79;76.82
11676;BME280;5894;42.768;23.404;2023-07-22T07:08:50;95660.75;;;29.90;75.80
11676;BME280;5894;42.768;23.404;2023-07-22T07:11:18;95657.88;;;29.97;74.57
11676;BME280;5894;42.768;23.404;2023-07-22T07:13:45;95658.81;;;30.07;73.77
11676;BME280;5894;42.768;23.404;2023-07-22T07:16:22;95656.25;;;30.16;73.10
11676;BME280;5894;42.768;23.404;2023-07-22T07:18:50;95651.06;;;30.21;73.40
11676;BME280;5894;42.768;23.404;2023-07-22T07:21:20;95653.44;;;30.36;73.60
11676;BME280;5894;42.768;23.404;2023-07-22T07:23:47;95660.56;;;30.46;72.73
11676;BME280;5894;42.768;23.404;2023-07-22T07:26:17;95649.00;;;30.58;72.40
11676;BME280;5894;42.768;23.404;2023-07-22T07:28:45;95645.91;;;30.72;74.24
11676;BME280;5894;42.768;23.404;2023-07-22T07:31:12;95641.22;;;30.73;71.57
11676;BME280;5894;42.768;23.404;2023-07-22T07:33:39;95646.09;;;30.94;70.07
11676;BME280;5894;42.768;23.404;2023-07-22T07:36:06;95642.13;;;31.11;67.47
11676;BME280;5894;42.768;23.404;2023-07-22T07:38:35;95632.03;;;31.24;66.72
11676;BME280;5894;42.768;23.404;2023-07-22T07:41:03;95637.91;;;31.35;65.61
11676;BME280;5894;42.768;23.404;2023-07-22T07:43:33;95646.31;;;31.54;65.25
11676;BME280;5894;42.768;23.404;2023-07-22T07:46:14;95641.44;;;31.74;63.37
11676;BME280;5894;42.768;23.404;2023-07-22T07:48:43;95640.78;;;31.95;62.85
11676;BME280;5894;42.768;23.404;2023-07-22T07:51:12;95638.91;;;32.18;60.95
11676;BME280;5894;42.768;23.404;2023-07-22T07:53:40;95642.69;;;32.33;58.06
11676;BME280;5894;42.768;23.404;2023-07-22T07:56:08;95632.06;;;32.48;58.08
11676;BME280;5894;42.768;23.404;2023-07-22T07:58:37;95634.25;;;32.74;57.62
11676;BME280;5894;42.768;23.404;2023-07-22T08:01:04;95620.09;;;32.89;56.22
11676;BME280;5894;42.768;23.404;2023-07-22T08:03:33;95624.97;;;33.15;54.46
11676;BME280;5894;42.768;23.404;2023-07-22T08:06:00;95587.50;;;32.94;52.00
11676;BME280;5894;42.768;23.404;2023-07-22T08:08:27;95633.81;;;33.41;51.30
11676;BME280;5894;42.768;23.404;2023-07-22T09:03:47;95594.88;;;35.84;42.72
11676;BME280;5894;42.768;23.404;2023-07-22T09:06:14;95591.97;;;35.87;42.21
11676;BME280;5894;42.768;23.404;2023-07-22T09:08:42;95590.81;;;35.79;42.78
11676;BME280;5894;42.768;23.404;2023-07-22T09:11:09;95586.25;;;35.76;42.57
11676;BME280;5894;42.768;23.404;2023-07-22T09:13:37;95593.09;;;35.81;43.53
11676;BME280;5894;42.768;23.404;2023-07-22T09:16:06;95571.31;;;35.68;43.61
11676;BME280;5894;42.768;23.404;2023-07-22T09:18:33;95579.09;;;35.69;43.49
11676;BME280;5894;42.768;23.404;2023-07-22T09:21:01;95589.94;;;35.64;43.68
11676;BME280;5894;42.768;23.404;2023-07-22T09:23:32;95578.25;;;35.54;44.61
11676;BME280;5894;42.768;23.404;2023-07-22T09:26:08;95578.69;;;35.53;44.98
11676;BME280;5894;42.768;23.404;2023-07-22T09:28:47;95565.22;;;35.40;44.98
11676;BME280;5894;42.768;23.404;2023-07-22T09:31:14;95573.66;;;35.27;43.04
11676;BME280;5894;42.768;23.404;2023-07-22T09:33:41;95573.81;;;35.15;42.85
11676;BME280;5894;42.768;23.404;2023-07-22T09:36:11;95560.44;;;35.08;44.85
11676;BME280;5894;42.768;23.404;2023-07-22T09:38:38;95559.66;;;35.07;45.87
11676;BME280;5894;42.768;23.404;2023-07-22T09:41:05;95560.16;;;34.96;45.16
11676;BME280;5894;42.768;23.404;2023-07-22T09:43:36;95560.47;;;34.89;44.83
11676;BME280;5894;42.768;23.404;2023-07-22T09:46:08;95554.84;;;34.84;44.83
11676;BME280;5894;42.768;23.404;2023-07-22T09:48:40;95559.41;;;34.69;45.04
11676;BME280;5894;42.768;23.404;2023-07-22T09:51:13;95546.94;;;34.58;44.45
11676;BME280;5894;42.768;23.404;2023-07-22T09:53:45;95553.50;;;34.52;45.68
11676;BME280;5894;42.768;23.404;2023-07-22T09:56:12;95554.28;;;34.43;45.23
11676;BME280;5894;42.768;23.404;2023-07-22T09:58:40;95552.44;;;34.40;46.43
11676;BME280;5894;42.768;23.404;2023-07-22T10:01:07;95509.53;;;34.10;45.82
11676;BME280;5894;42.768;23.404;2023-07-22T10:03:37;95541.19;;;34.29;46.74
11676;BME280;5894;42.768;23.404;2023-07-22T10:06:05;95544.66;;;34.20;45.92
11676;BME280;5894;42.768;23.404;2023-07-22T10:08:36;95530.97;;;34.02;46.89
11676;BME280;5894;42.768;23.404;2023-07-22T10:11:05;95538.28;;;34.05;45.35
11676;BME280;5894;42.768;23.404;2023-07-22T10:13:32;95548.16;;;34.03;46.00
11676;BME280;5894;42.768;23.404;2023-07-22T10:16:00;95540.41;;;34.01;46.72
11676;BME280;5894;42.768;23.404;2023-07-22T10:18:28;95539.94;;;34.03;45.90
11676;BME280;5894;42.768;23.404;2023-07-22T10:20:57;95529.44;;;33.92;44.97
11676;BME280;5894;42.768;23.404;2023-07-22T10:23:26;95524.88;;;33.89;45.72
11676;BME280;5894;42.768;23.404;2023-07-22T10:25:54;95523.66;;;33.90;46.26
11676;BME280;5894;42.768;23.404;2023-07-22T10:28:24;95528.22;;;33.93;45.22
11676;BME280;5894;42.768;23.404;2023-07-22T10:30:51;95522.75;;;33.93;45.59
11676;BME280;5894;42.768;23.404;2023-07-22T10:33:19;95524.75;;;33.93;45.02
11676;BME280;5894;42.768;23.404;2023-07-22T10:36:02;95519.72;;;33.91;46.44
11676;BME280;5894;42.768;23.404;2023-07-22T10:38:30;95491.41;;;33.76;47.26
11676;BME280;5894;42.768;23.404;2023-07-22T10:40:59;95510.59;;;33.94;47.97
11676;BME280;5894;42.768;23.404;2023-07-22T10:43:27;95510.28;;;33.92;42.94
11676;BME280;5894;42.768;23.404;2023-07-22T10:45:57;95513.03;;;33.83;44.53
11676;BME280;5894;42.768;23.404;2023-07-22T10:48:26;95507.38;;;33.86;45.07
11676;BME280;5894;42.768;23.404;2023-07-22T10:50:57;95505.41;;;33.87;46.05
11676;BME280;5894;42.768;23.404;2023-07-22T10:53:29;95502.22;;;33.88;44.86
11676;BME280;5894;42.768;23.404;2023-07-22T10:56:05;95504.81;;;33.92;44.85
11676;BME280;5894;42.768;23.404;2023-07-22T10:58:33;95499.94;;;33.96;44.67
11676;BME280;5894;42.768;23.404;2023-07-22T11:01:23;95488.09;;;33.99;44.40
11676;BME280;5894;42.768;23.404;2023-07-22T11:04:04;95484.28;;;34.06;44.72
11676;BME280;5894;42.768;23.404;2023-07-22T11:06:32;95487.81;;;34.15;43.73
11676;BME280;5894;42.768;23.404;2023-07-22T11:08:59;95487.63;;;34.19;43.29
11676;BME280;5894;42.768;23.404;2023-07-22T11:11:36;95482.94;;;34.19;44.68
11676;BME280;5894;42.768;23.404;2023-07-22T11:14:14;95482.94;;;34.38;45.75
11676;BME280;5894;42.768;23.404;2023-07-22T11:16:42;95482.63;;;34.45;42.25
11676;BME280;5894;42.768;23.404;2023-07-22T11:19:09;95476.97;;;34.48;42.80
11676;BME280;5894;42.768;23.404;2023-07-22T11:21:36;95484.09;;;34.64;43.27
11676;BME280;5894;42.768;23.404;2023-07-22T11:24:03;95482.56;;;34.72;44.44
11676;BME280;5894;42.768;23.404;2023-07-22T11:26:31;95486.66;;;34.86;42.73
11676;BME280;5894;42.768;23.404;2023-07-22T11:28:59;95488.91;;;34.96;36.85
11676;BME280;5894;42.768;23.404;2023-07-22T11:31:31;95485.22;;;35.09;39.19
11676;BME280;5894;42.768;23.404;2023-07-22T11:33:58;95449.13;;;35.01;40.47
11676;BME280;5894;42.768;23.404;2023-07-22T11:36:26;95478.25;;;35.31;40.94
11676;BME280;5894;42.768;23.404;2023-07-22T11:38:53;95475.25;;;35.29;39.72
11676;BME280;5894;42.768;23.404;2023-07-22T11:41:21;95465.34;;;35.23;39.84
11676;BME280;5894;42.768;23.404;2023-07-22T11:43:48;95466.75;;;35.18;39.77
11676;BME280;5894;42.768;23.404;2023-07-22T11:46:17;95464.47;;;35.17;40.76
11676;BME280;5894;42.768;23.404;2023-07-22T11:48:50;95463.50;;;35.20;40.75
11676;BME280;5894;42.768;23.404;2023-07-22T11:51:19;95433.16;;;35.00;39.67
11676;BME280;5894;42.768;23.404;2023-07-22T11:53:47;95462.31;;;35.30;40.66
11676;BME280;5894;42.768;23.404;2023-07-22T11:56:20;95464.09;;;35.33;38.25
11676;BME280;5894;42.768;23.404;2023-07-22T11:58:51;95462.81;;;35.43;38.70
11676;BME280;5894;42.768;23.404;2023-07-22T12:01:20;95466.09;;;35.56;40.18
11676;BME280;5894;42.768;23.404;2023-07-22T12:03:47;95445.50;;;35.61;39.56
11676;BME280;5894;42.768;23.404;2023-07-22T12:06:15;95457.94;;;35.71;38.72
11676;BME280;5894;42.768;23.404;2023-07-22T12:08:47;95417.19;;;35.55;36.80
11676;BME280;5894;42.768;23.404;2023-07-22T12:11:18;95446.38;;;35.91;38.15
11676;BME280;5894;42.768;23.404;2023-07-22T12:13:46;95454.16;;;36.07;38.45
11676;BME280;5894;42.768;23.404;2023-07-22T12:16:23;95452.97;;;36.23;37.64
11676;BME280;5894;42.768;23.404;2023-07-22T12:18:50;95445.41;;;36.32;37.04
11676;BME280;5894;42.768;23.404;2023-07-22T12:21:21;95445.78;;;36.40;36.79
11676;BME280;5894;42.768;23.404;2023-07-22T12:23:48;95444.94;;;36.49;36.89
11676;BME280;5894;42.768;23.404;2023-07-22T12:26:15;95437.28;;;36.53;36.10
11676;BME280;5894;42.768;23.404;2023-07-22T12:28:42;95440.38;;;36.60;36.08
11676;BME280;5894;42.768;23.404;2023-07-22T12:31:08;95438.09;;;36.59;36.19
11676;BME280;5894;42.768;23.404;2023-07-22T12:33:37;95432.50;;;36.68;36.42
11676;BME280;5894;42.768;23.404;2023-07-22T12:36:04;95429.09;;;36.88;36.71
11676;BME280;5894;42.768;23.404;2023-07-22T12:38:32;95434.16;;;37.09;37.41
11676;BME280;5894;42.768;23.404;2023-07-22T12:40:59;95425.97;;;37.30;36.95
11676;BME280;5894;42.768;23.404;2023-07-22T12:43:27;95412.59;;;37.37;35.49
11676;BME280;5894;42.768;23.404;2023-07-22T12:45:54;95416.56;;;37.57;35.37
11676;BME280;5894;42.768;23.404;2023-07-22T12:48:21;95423.25;;;37.70;35.92
11676;BME280;5894;42.768;23.404;2023-07-22T12:50:51;95412.84;;;37.80;35.09
11676;BME280;5894;42.768;23.404;2023-07-22T12:53:18;95411.25;;;37.94;35.20
11676;BME280;5894;42.768;23.404;2023-07-22T12:55:45;95412.09;;;38.00;34.27
11676;BME280;5894;42.768;23.404;2023-07-22T12:58:13;95411.19;;;38.08;35.42
11676;BME280;5894;42.768;23.404;2023-07-22T13:00:40;95411.25;;;38.14;35.09
11676;BME280;5894;42.768;23.404;2023-07-22T13:03:07;95401.56;;;38.24;33.31
11676;BME280;5894;42.768;23.404;2023-07-22T13:05:34;95404.16;;;38.33;34.75
11676;BME280;5894;42.768;23.404;2023-07-22T13:08:03;95400.06;;;38.49;34.22
11676;BME280;5894;42.768;23.404;2023-07-22T13:10:33;95380.94;;;38.40;33.43
11676;BME280;5894;42.768;23.404;2023-07-22T13:13:03;95403.91;;;38.57;32.11
11676;BME280;5894;42.768;23.404;2023-07-22T13:15:30;95400.31;;;38.51;31.72
11676;BME280;5894;42.768;23.404;2023-07-22T13:17:57;95394.47;;;38.43;31.99
11676;BME280;5894;42.768;23.404;2023-07-22T13:20:24;95396.59;;;38.54;32.05
11676;BME280;5894;42.768;23.404;2023-07-22T13:22:51;95392.13;;;38.57;31.54
11676;BME280;5894;42.768;23.404;2023-07-22T13:25:19;95396.13;;;38.55;32.01
11676;BME280;5894;42.768;23.404;2023-07-22T13:27:46;95383.94;;;38.42;30.91
11676;BME280;5894;42.768;23.404;2023-07-22T13:30:13;95373.09;;;38.33;30.94
11676;BME280;5894;42.768;23.404;2023-07-22T13:32:40;95380.50;;;38.47;30.65
11676;BME280;5894;42.768;23.404;2023-07-22T13:35:07;95384.06;;;38.53;31.06
11676;BME280;5894;42.768;23.404;2023-07-22T13:37:35;95365.97;;;38.46;31.32
11676;BME280;5894;42.768;23.404;2023-07-22T13:40:04;95374.94;;;38.41;31.80
11676;BME280;5894;42.768;23.404;2023-07-22T13:42:37;95378.94;;;38.40;31.27
11676;BME280;5894;42.768;23.404;2023-07-22T13:45:05;95374.69;;;38.39;31.27
11676;BME280;5894;42.768;23.404;2023-07-22T13:47:32;95371.38;;;38.35;30.84
11676;BME280;5894;42.768;23.404;2023-07-22T13:49:59;95361.78;;;38.25;30.78
11676;BME280;5894;42.768;23.404;2023-07-22T13:52:26;95366.00;;;38.21;30.59
11676;BME280;5894;42.768;23.404;2023-07-22T13:54:53;95375.56;;;38.25;30.60
11676;BME280;5894;42.768;23.404;2023-07-22T13:57:20;95363.09;;;38.30;30.36
11676;BME280;5894;42.768;23.404;2023-07-22T13:59:49;95356.34;;;38.31;29.70
11676;BME280;5894;42.768;23.404;2023-07-22T14:02:16;95354.53;;;38.28;30.71
11676;BME280;5894;42.768;23.404;2023-07-22T14:04:43;95350.88;;;38.42;30.49